Stations météo

réclame
Mon MeteoGroup
Hupsel aws, Pays-Bas (6283): Température de l'air & dewpoint: 07.12.2019 15:00:00 - 13.12.2019 15:00:00 (CET)Hupsel aws, Pays-Bas (6283): Température de l'air 5cm: 07.12.2019 15:00:00 - 13.12.2019 15:00:00 (CET)Hupsel aws, Pays-Bas (6283): Vitesse du vent & gusts: 07.12.2019 15:00:00 - 13.12.2019 15:00:00 (CET)Hupsel aws, Pays-Bas (6283): Direction du vent: 07.12.2019 15:00:00 - 13.12.2019 15:00:00 (CET)Hupsel aws, Pays-Bas (6283): Quantités de précipitations: 07.12.2019 15:00:00 - 13.12.2019 15:00:00 (CET)
Date & Time tt [°C] td [°C] tt 5cm [°C] ff [km/h] ff [knt] fx [km/h] fx [knt] dd rr [mm]
13.12.2019 15:00:00 4,0 3,9 4,1 7 4 11 6 N 0,2
13.12.2019 14:00:00 3,9 3,8 4,2 7 4 14 8 ENE 0,1
13.12.2019 13:00:00 3,9 3,3 4,1 11 6 18 10 ESE 0,3
13.12.2019 12:00:00 3,6 2,7 3,6 14 8 25 14 E 0,0
13.12.2019 11:00:00 3,5 2,7 3,5 14 8 25 14 ESE 0,1
13.12.2019 10:00:00 3,1 2,2 3,0 18 10 25 14 ESE 0,0
13.12.2019 09:00:00 2,9 2,1 2,7 14 8 29 16 ESE 0,3
13.12.2019 08:00:00 2,9 1,8 2,8 18 10 32 18 ESE 0,0
13.12.2019 07:00:00 3,1 1,6 2,9 22 12 32 18 SE 0,0
13.12.2019 06:00:00 3,2 1,5 2,8 18 10 36 19 SE 0,1
13.12.2019 05:00:00 3,2 1,7 2,8 22 12 40 21 SSE 0,2
13.12.2019 04:00:00 3,3 1,3 2,9 29 16 43 23 SSE 0,1
13.12.2019 03:00:00 4,4 0,2 3,8 25 14 47 25 SSE 0,0
13.12.2019 02:00:00 4,2 0,2 3,5 25 14 40 21 SSE 0,0
13.12.2019 01:00:00 3,8 0,5 3,1 22 12 43 23 SSE 0,0
13.12.2019 00:00:00 3,8 0,4 3,2 22 12 43 23 SSE 0,0
12.12.2019 23:00:00 4,0 0,2 3,2 22 12 40 21 SSE 0,0
12.12.2019 22:00:00 4,0 0,4 3,3 22 12 40 21 SSE 0,0
12.12.2019 21:00:00 4,0 0,3 3,5 22 12 40 21 SSE 0,0
12.12.2019 20:00:00 3,8 0,1 3,0 22 12 36 19 SSE 0,0
12.12.2019 19:00:00 3,7 0,3 2,8 18 10 32 18 SSE 0,0
12.12.2019 18:00:00 3,1 0,5 1,8 14 8 25 14 SSE 0,0
12.12.2019 17:00:00 3,6 1,0 2,1 14 8 22 12 SSE 0,0
12.12.2019 16:00:00 4,2 1,5 3,2 14 8 22 12 S 0,0
12.12.2019 15:00:00 5,2 2,1 5,1 14 8 25 14 S 0,0
12.12.2019 14:00:00 5,0 2,3 5,0 18 10 36 19 SSW 0,0
12.12.2019 13:00:00 5,1 2,8 5,1 14 8 29 16 SSW 0,0
12.12.2019 12:00:00 4,8 3,0 5,0 14 8 29 16 SSW 0,0
12.12.2019 11:00:00 4,4 3,5 4,6 11 6 29 16 SSW 0,0
12.12.2019 10:00:00 4,4 3,7 4,3 11 6 25 14 SSW 0,0
12.12.2019 09:00:00 4,5 3,9 4,4 11 6 25 14 SW 0,0
12.12.2019 08:00:00 4,8 4,0 4,6 11 6 25 14 SW 0,0
12.12.2019 07:00:00 4,9 4,0 4,7 11 6 22 12 SSW 0,0
12.12.2019 06:00:00 4,9 4,0 4,7 11 6 22 12 SSW 0,0
12.12.2019 05:00:00 4,7 4,1 4,6 11 6 18 10 SSW 0,0
12.12.2019 04:00:00 4,8 4,0 4,5 11 6 18 10 SSW 0,0
12.12.2019 03:00:00 4,6 4,1 4,4 11 6 22 12 S 0,0
12.12.2019 02:00:00 4,6 4,1 4,3 11 6 22 12 SSW 0,0
12.12.2019 01:00:00 4,9 4,3 4,4 14 8 22 12 S 0,0
12.12.2019 00:00:00 5,4 4,9 5,2 11 6 25 14 SSW 0,0
11.12.2019 23:00:00 5,2 5,0 4,9 11 6 18 10 SSW 0,0
11.12.2019 22:00:00 4,8 4,7 4,4 11 6 18 10 SSW 0,0
11.12.2019 21:00:00 4,0 3,9 2,9 7 4 14 8 S 0,0
11.12.2019 20:00:00 4,4 4,3 3,5 11 6 14 8 SSW 0,0
11.12.2019 19:00:00 4,0 3,9 2,6 7 4 11 6 S 0,0
11.12.2019 18:00:00 4,5 4,3 3,5 7 4 14 8 SSW 0,0
11.12.2019 17:00:00 5,5 5,4 5,3 7 4 18 10 SSW 0,0
11.12.2019 16:00:00 5,6 5,5 5,5 11 6 22 12 SSW 0,0
11.12.2019 15:00:00 5,7 5,6 5,6 11 6 18 10 SSW 0,1
11.12.2019 14:00:00 5,7 5,6 5,7 11 6 22 12 S 0,5
11.12.2019 13:00:00 5,7 5,6 5,7 11 6 22 12 S 0,4
11.12.2019 12:00:00 5,8 5,6 5,9 11 6 22 12 S 0,4
11.12.2019 11:00:00 5,8 5,6 5,8 11 6 22 12 SSW 0,3
11.12.2019 10:00:00 5,5 5,4 5,4 11 6 18 10 S 0,2
11.12.2019 09:00:00 5,2 5,1 5,1 11 6 22 12 S 0,2
11.12.2019 08:00:00 5,0 4,9 4,9 11 6 25 14 S 0,9
11.12.2019 07:00:00 4,9 4,7 4,7 18 10 32 18 S 1,0
11.12.2019 06:00:00 4,7 4,6 4,5 18 10 32 18 S 0,9
11.12.2019 05:00:00 4,5 4,3 4,3 18 10 40 21 S 0,3
11.12.2019 04:00:00 4,9 3,8 4,7 25 14 43 23 S 0,0
11.12.2019 03:00:00 6,1 2,0 5,7 25 14 47 25 SSW 0,0
11.12.2019 02:00:00 6,3 0,0 5,8 25 14 43 23 S 0,0
11.12.2019 01:00:00 6,2 -0,1 5,6 25 14 43 23 S 0,0
11.12.2019 00:00:00 5,9 0,1 5,3 32 18 54 29 S 0,0
10.12.2019 23:00:00 5,3 -0,3 4,8 29 16 50 27 S 0,0
10.12.2019 22:00:00 5,2 -0,6 4,7 29 16 50 27 S 0,0
10.12.2019 21:00:00 5,1 -0,6 4,5 29 16 54 29 S 0,0
10.12.2019 20:00:00 5,0 0,2 4,5 29 16 50 27 S 0,0
10.12.2019 19:00:00 5,1 0,2 4,4 25 14 47 25 S 0,0
10.12.2019 18:00:00 5,1 0,9 4,4 25 14 40 21 S 0,0
10.12.2019 17:00:00 5,0 0,8 4,0 25 14 40 21 S 0,0
10.12.2019 16:00:00 4,7 1,1 3,7 18 10 32 18 S 0,0
10.12.2019 15:00:00 5,3 1,2 4,7 18 10 36 19 S 0,0
10.12.2019 14:00:00 5,8 2,1 5,9 22 12 36 19 SSW 0,0
10.12.2019 13:00:00 5,4 2,5 5,7 18 10 32 18 SSW 0,0
10.12.2019 12:00:00 4,7 2,8 5,0 18 10 29 16 S 0,0
10.12.2019 11:00:00 3,3 2,2 2,3 11 6 18 10 SSW 0,0
10.12.2019 10:00:00 2,3 1,4 1,6 11 6 18 10 S 0,0
10.12.2019 09:00:00 1,8 0,8 0,4 7 4 14 8 SSW 0,0
10.12.2019 08:00:00 1,0 0,3 -1,4 7 4 14 8 SSW 0,0
10.12.2019 07:00:00 0,5 -0,2 -1,4 7 4 14 8 SW 0,0
10.12.2019 06:00:00 0,4 -0,6 -1,2 11 6 14 8 WSW 0,0
10.12.2019 05:00:00 0,9 -0,3 -1,3 7 4 14 8 WSW 0,0
10.12.2019 04:00:00 1,8 0,3 0,7 11 6 14 8 WSW 0,0
10.12.2019 03:00:00 1,9 0,3 0,4 11 6 14 8 WSW 0,0
10.12.2019 02:00:00 1,2 0,0 -0,2 11 6 14 8 WSW 0,0
10.12.2019 01:00:00 2,0 0,7 0,8 7 4 18 10 WSW 0,0
10.12.2019 00:00:00 3,4 0,9 1,8 11 6 18 10 W 0,0
09.12.2019 23:00:00 3,9 0,9 2,5 11 6 29 16 W 0,0
09.12.2019 22:00:00 4,5 0,6 3,3 18 10 32 18 WNW 0,0
09.12.2019 21:00:00 4,9 1,7 3,8 18 10 32 18 NW 0,0
09.12.2019 20:00:00 5,3 2,0 4,5 22 12 32 18 NW 0,0
09.12.2019 19:00:00 5,6 2,5 4,7 18 10 32 18 NW 0,0
09.12.2019 18:00:00 6,2 4,0 5,7 18 10 36 19 NW 0,0
09.12.2019 17:00:00 6,5 5,0 6,2 29 16 43 23 NW 0,3
09.12.2019 16:00:00 7,5 5,8 7,0 22 12 36 19 NW 0,3
09.12.2019 15:00:00 7,8 6,3 7,4 7 4 22 12 W 0,0
09.12.2019 14:00:00 8,2 6,2 8,2 11 6 25 14 W 0,0
09.12.2019 13:00:00 7,7 6,2 7,7 14 8 25 14 WSW 0,0
09.12.2019 12:00:00 7,0 5,9 7,0 14 8 29 16 WSW 0,0
09.12.2019 11:00:00 6,5 6,0 6,2 11 6 25 14 WSW 0,0
09.12.2019 10:00:00 6,2 6,1 6,0 11 6 25 14 W 0,1
09.12.2019 09:00:00 6,0 5,7 5,7 11 6 25 14 SSW 0,5
09.12.2019 08:00:00 5,7 4,7 5,4 14 8 43 23 S 2,2
09.12.2019 07:00:00 6,3 5,0 5,8 18 10 32 18 S 0,9
09.12.2019 06:00:00 7,1 4,0 6,7 18 10 36 19 SSW 0,0
09.12.2019 05:00:00 7,1 3,9 6,7 18 10 36 19 SSW 0,0
09.12.2019 04:00:00 6,9 4,0 6,2 18 10 40 21 SSW 0,0
09.12.2019 03:00:00 6,8 4,1 6,3 18 10 36 19 SSW 0,0
09.12.2019 02:00:00 7,0 4,0 6,6 18 10 36 19 SSW 0,0
09.12.2019 01:00:00 6,7 4,0 6,2 18 10 36 19 SW 0,0
09.12.2019 00:00:00 7,3 4,2 6,9 14 8 43 23 SW 0,0
08.12.2019 23:00:00 7,6 4,6 7,1 18 10 36 19 SSW 0,0
08.12.2019 22:00:00 7,0 3,8 6,4 18 10 54 29 SW 0,0
08.12.2019 21:00:00 8,9 4,4 8,3 25 14 40 21 SSW 0,0
08.12.2019 20:00:00 8,6 5,1 7,9 18 10 40 21 SSW 0,0
08.12.2019 19:00:00 8,5 4,8 7,7 14 8 32 18 SSW 0,0
08.12.2019 18:00:00 8,5 4,9 7,6 14 8 40 21 SSW 0,0
08.12.2019 17:00:00 9,1 5,4 8,5 25 14 47 25 WSW 0,0
08.12.2019 16:00:00 9,3 5,7 8,4 29 16 50 27 WSW 0,0
08.12.2019 15:00:00 10,0 6,4 9,3 36 19 54 29 WSW 0,0
08.12.2019 14:00:00 10,4 8,3 10,0 29 16 50 27 WSW 0,1
08.12.2019 13:00:00 10,4 9,0 10,0 40 21 61 33 WSW 0,5
08.12.2019 12:00:00 10,1 9,2 9,5 25 14 54 29 SW 0,1
08.12.2019 11:00:00 9,4 8,9 9,1 22 12 50 27 SSW 0,2
08.12.2019 10:00:00 9,5 8,5 9,1 22 12 50 27 SSW 0,1
08.12.2019 09:00:00 9,1 8,3 8,7 22 12 47 25 SSW 0,9
08.12.2019 08:00:00 9,4 7,4 9,0 25 14 47 25 SSW 0,2
08.12.2019 07:00:00 9,8 6,2 9,2 25 14 47 25 SW 0,0
08.12.2019 06:00:00 9,4 6,1 8,8 25 14 47 25 SSW 0,0
08.12.2019 05:00:00 9,2 5,6 8,7 25 14 50 27 SSW 0,0
08.12.2019 04:00:00 9,1 5,4 8,5 18 10 43 23 SSW 0,0
08.12.2019 03:00:00 8,9 5,6 8,5 22 12 40 21 SSW 0,0
08.12.2019 02:00:00 9,1 5,7 8,6 22 12 43 23 SSW 0,0
08.12.2019 01:00:00 8,8 6,1 8,4 22 12 36 19 SSW 0,0
08.12.2019 00:00:00 8,7 6,4 8,2 22 12 40 21 SSW 0,0
07.12.2019 23:00:00 8,5 5,6 8,1 18 10 32 18 SSW 0,0
07.12.2019 22:00:00 8,5 4,9 8,0 14 8 32 18 SW 0,0
07.12.2019 21:00:00 8,5 5,7 8,0 14 8 25 14 SSW 0,0
07.12.2019 20:00:00 8,3 6,5 7,9 11 6 22 12 SSW 0,0
07.12.2019 19:00:00 8,5 6,7 8,1 11 6 25 14 SW 0,0
07.12.2019 18:00:00 8,7 6,8 8,3 14 8 29 16 SW 0,0
07.12.2019 17:00:00 8,8 7,1 8,4 14 8 32 18 SW 0,0
07.12.2019 16:00:00 9,1 7,3 8,8 22 12 32 18 WSW 0,0
07.12.2019 15:00:00 9,2 7,6 8,9 22 12 36 19 WSW 0,0

tt = Température de l'air
td = dewpoint
tt 5cm = Température de l'air 5cm
ff = Vitesse du vent
fx = gusts
dd = Direction du vent
rr = Quantités de précipitations

stations d'obs. à proximité